Time;durP1;ratioP1;P1;durP2;ratioP2;P2;SDS_P1;SDS_P2;PMS_P1;PMS_P2;Temp;Humidity;BMP_temperature;BMP_pressure;BME280_temperature;BME280_humidity;BME280_pressure;Samples;Min_cycle;Max_cycle;Signal;HPM_P1;HPM_P2
2023/12/15 00:02:03;;;;;;;15.88;4.47;;;;;;;-7.07;75.62;99730.97;4944179;28;20034;-70
2023/12/15 00:04:31;;;;;;;1.10;0.75;;;;;;;-7.17;76.12;99751.44;5008839;28;20370;-68
2023/12/15 00:07:02;;;;;;;9.90;2.88;;;;;;;-7.35;76.67;99730.94;4989754;28;20069;-69
2023/12/15 00:09:28;;;;;;;17.67;3.78;;;;;;;-7.49;76.00;99700.63;4983645;28;20042;-69
2023/12/15 00:11:57;;;;;;;20.45;4.35;;;;;;;-7.39;76.76;99721.41;4988864;28;20069;-70
2023/12/15 00:14:25;;;;;;;11.80;2.10;;;;;;;-7.36;77.29;99698.84;4987414;28;20041;-70
2023/12/15 00:16:53;;;;;;;17.38;2.40;;;;;;;-7.10;76.84;99730.78;5010086;28;20594;-69
2023/12/15 00:19:19;;;;;;;5.68;1.42;;;;;;;-7.36;76.89;99697.19;5006685;28;20038;-71
2023/12/15 00:21:53;;;;;;;20.83;5.90;;;;;;;-7.03;76.97;99740.50;4985187;28;20037;-69
2023/12/15 00:24:19;;;;;;;21.15;3.42;;;;;;;-7.11;76.42;99709.69;4994584;28;20030;-68
2023/12/15 00:26:45;;;;;;;15.88;3.05;;;;;;;-7.32;76.67;99721.03;4971521;28;21523;-71
2023/12/15 00:29:19;;;;;;;5.75;1.67;;;;;;;-7.26;76.17;99718.84;4993916;28;20452;-69
2023/12/15 00:31:51;;;;;;;;;;;;;;;-7.23;76.52;99713.13;4994486;28;20487;-68
2023/12/15 00:34:27;;;;;;;4.03;1.35;;;;;;;-7.22;77.04;99679.47;4982267;28;19964;-68
2023/12/15 00:36:53;;;;;;;3.33;0.80;;;;;;;-7.38;77.03;99670.06;4975643;28;20188;-69
2023/12/15 00:39:21;;;;;;;2.20;1.10;;;;;;;-7.54;77.01;99653.97;5009618;28;20500;-69
2023/12/15 00:41:47;;;;;;;3.83;1.50;;;;;;;-7.43;77.22;99649.56;4980036;28;20045;-69
2023/12/15 00:44:13;;;;;;;10.55;2.45;;;;;;;-7.46;76.17;99650.25;4987145;28;20041;-69
2023/12/15 00:46:48;;;;;;;3.55;2.47;;;;;;;-7.62;76.96;99613.06;4977255;28;20409;-68
2023/12/15 00:49:17;;;;;;;;;;;;;;;-6.83;78.24;99688.53;5010052;28;20042;-68
2023/12/15 00:51:52;;;;;;;4.00;0.77;;;;;;;-7.00;77.10;99639.47;5008356;28;19921;-69
2023/12/15 00:54:19;;;;;;;0.52;0.28;;;;;;;-6.82;77.60;99669.19;4971986;28;20492;-67
2023/12/15 00:56:45;;;;;;;0.65;0.40;;;;;;;-7.09;77.53;99625.41;5004131;28;20139;-69
2023/12/15 00:59:13;;;;;;;4.20;1.75;;;;;;;-6.75;77.24;99689.00;4987682;28;20109;-68
2023/12/15 01:01:40;;;;;;;20.52;3.78;;;;;;;-7.19;76.00;99652.69;4971737;28;20038;-68
2023/12/15 01:04:06;;;;;;;4.60;1.45;;;;;;;-7.18;77.26;99628.28;4995876;28;20535;-68
2023/12/15 01:06:35;;;;;;;10.55;2.15;;;;;;;-7.32;76.47;99613.16;4982998;28;20041;-69
2023/12/15 01:09:01;;;;;;;11.90;3.25;;;;;;;-7.11;76.47;99673.38;4981175;28;20046;-73
2023/12/15 01:11:34;;;;;;;10.38;2.30;;;;;;;-7.50;76.90;99600.28;4997477;28;20496;-75
2023/12/15 01:14:01;;;;;;;14.35;2.78;;;;;;;-7.13;77.21;99668.25;5007023;28;20046;-72
2023/12/15 01:16:36;;;;;;;3.08;1.38;;;;;;;-7.13;76.80;99680.00;4957551;28;20045;-74
2023/12/15 01:19:08;;;;;;;11.68;3.05;;;;;;;-7.06;77.78;99651.75;4985904;28;20187;-74
2023/12/15 01:21:37;;;;;;;6.65;2.35;;;;;;;-7.06;77.10;99677.06;4977070;28;20076;-76
2023/12/15 01:24:07;;;;;;;8.40;2.22;;;;;;;-7.08;77.52;99678.63;4987651;28;20042;-74
2023/12/15 01:26:33;;;;;;;14.65;3.17;;;;;;;-7.43;76.53;99630.19;4957635;28;20041;-74
2023/12/15 01:29:03;;;;;;;9.60;1.95;;;;;;;-7.35;77.03;99667.72;4974056;28;20103;-72
2023/12/15 01:31:32;;;;;;;1.08;0.32;;;;;;;-7.13;77.55;99642.94;4970806;28;20447;-73
2023/12/15 01:34:01;;;;;;;1.50;0.57;;;;;;;-7.18;77.32;99634.19;4953119;28;20475;-73
2023/12/15 01:36:28;;;;;;;8.15;2.22;;;;;;;-7.38;76.72;99599.28;5006369;28;20519;-72
2023/12/15 01:38:55;;;;;;;12.70;2.70;;;;;;;-7.14;77.52;99622.59;4974975;28;20033;-72
2023/12/15 01:41:23;;;;;;;17.33;2.90;;;;;;;-7.17;77.19;99635.94;4992011;28;20038;-72
2023/12/15 01:44:01;;;;;;;7.80;1.70;;;;;;;-7.15;77.21;99626.81;4975305;28;20037;-72
2023/12/15 01:46:27;;;;;;;11.63;0.82;;;;;;;-7.35;77.31;99602.00;4983841;28;20041;-72
2023/12/15 01:49:01;;;;;;;6.18;2.08;;;;;;;-7.66;77.34;99547.94;4971834;28;20041;-73
2023/12/15 01:51:35;;;;;;;9.13;2.50;;;;;;;-7.41;76.86;99607.56;4988664;28;20056;-73
2023/12/15 01:54:04;;;;;;;15.10;2.50;;;;;;;-7.43;76.74;99614.19;4989920;28;20492;-73
2023/12/15 01:56:33;;;;;;;4.13;1.23;;;;;;;-7.83;76.70;99561.22;4986005;28;20056;-73
2023/12/15 01:58:59;;;;;;;7.78;2.03;;;;;;;-7.76;76.85;99591.13;4982407;28;20136;-72
2023/12/15 02:01:25;;;;;;;11.27;1.35;;;;;;;-7.45;76.89;99609.00;4979255;28;20041;-73
2023/12/15 02:03:54;;;;;;;0.95;0.77;;;;;;;-7.21;77.54;99598.59;5005718;28;20042;-71
2023/12/15 02:06:23;;;;;;;11.93;3.13;;;;;;;-7.74;77.07;99516.28;4987308;28;20038;-70
2023/12/15 02:08:49;;;;;;;3.33;1.33;;;;;;;-8.02;77.08;99490.25;4986842;28;20061;-72
2023/12/15 02:11:15;;;;;;;19.88;3.20;;;;;;;-7.65;78.20;99508.38;4970544;28;20038;-72
2023/12/15 02:13:41;;;;;;;15.95;3.13;;;;;;;-7.05;77.77;99572.56;4983900;28;20041;-70
2023/12/15 02:16:08;;;;;;;0.60;0.30;;;;;;;-7.17;78.08;99544.91;5001656;28;20062;-71
2023/12/15 02:18:37;;;;;;;3.95;0.98;;;;;;;-6.99;77.61;99580.50;4968964;28;20119;-71
2023/12/15 02:21:02;;;;;;;6.55;2.10;;;;;;;-7.32;76.77;99549.94;4973166;28;20041;-70
2023/12/15 02:23:32;;;;;;;7.25;2.75;;;;;;;-7.42;76.74;99550.19;5006576;28;20096;-72
2023/12/15 02:25:58;;;;;;;17.02;3.13;;;;;;;-7.06;78.12;99591.03;4971989;28;20050;-73
2023/12/15 02:28:27;;;;;;;3.65;0.85;;;;;;;-7.16;78.30;99545.75;4990122;28;20547;-71
2023/12/15 02:30:55;;;;;;;2.55;0.50;;;;;;;-6.55;78.19;99586.34;4971839;28;20033;-71
2023/12/15 02:33:24;;;;;;;13.20;2.90;;;;;;;-6.72;76.98;99565.13;5005576;28;20492;-71
2023/12/15 02:36:02;;;;;;;8.55;2.70;;;;;;;-6.78;77.51;99581.63;5004615;28;20603;-70
2023/12/15 02:38:30;;;;;;;6.80;1.63;;;;;;;-7.24;76.87;99577.34;4979909;28;20065;-72
2023/12/15 02:40:56;;;;;;;3.95;1.40;;;;;;;-7.61;76.27;99538.09;4979912;28;20096;-71
2023/12/15 02:43:25;;;;;;;3.03;0.85;;;;;;;-7.32;77.11;99582.81;4991322;28;20034;-70
2023/12/15 02:45:54;;;;;;;9.32;2.47;;;;;;;-7.94;76.87;99478.06;4987776;28;20753;-71
2023/12/15 02:48:20;;;;;;;10.02;2.58;;;;;;;-7.85;76.86;99502.16;5008518;28;20049;-70
2023/12/15 02:50:52;;;;;;;2.20;1.48;;;;;;;-7.23;77.74;99557.16;4952220;28;20152;-72
2023/12/15 02:53:20;;;;;;;19.27;5.15;;;;;;;-7.18;76.75;99572.63;4974387;28;20042;-70
2023/12/15 02:55:46;;;;;;;16.80;4.22;;;;;;;-7.27;76.87;99546.03;5008413;28;20152;-69
2023/12/15 02:58:19;;;;;;;11.38;3.22;;;;;;;-7.31;77.21;99554.19;4984111;28;20033;-71
2023/12/15 03:00:46;;;;;;;8.15;2.50;;;;;;;-7.51;77.31;99521.81;4971270;28;20053;-69
2023/12/15 03:03:17;;;;;;;4.88;1.83;;;;;;;-7.45;77.45;99528.09;4976524;28;20125;-70
2023/12/15 03:05:43;;;;;;;0.22;0.17;;;;;;;-7.18;77.45;99557.47;4987328;28;20048;-69
2023/12/15 03:08:12;;;;;;;5.63;2.40;;;;;;;-7.48;76.78;99509.38;4981639;28;20535;-72
2023/12/15 03:10:38;;;;;;;8.05;2.92;;;;;;;-7.43;77.17;99511.38;4973375;28;20038;-70
2023/12/15 03:13:04;;;;;;;22.13;4.35;;;;;;;-7.28;76.82;99531.63;4991085;28;20042;-70
2023/12/15 03:15:33;;;;;;;5.85;2.10;;;;;;;-7.05;77.73;99547.25;5008244;28;20049;-69
2023/12/15 03:18:01;;;;;;;5.47;1.52;;;;;;;-7.05;77.83;99524.50;4989703;28;20056;-69
2023/12/15 03:20:27;;;;;;;4.30;1.55;;;;;;;-7.07;76.95;99555.56;4985861;28;20073;-68
2023/12/15 03:22:59;;;;;;;13.35;3.97;;;;;;;-7.37;76.89;99523.50;4967505;28;20038;-69
2023/12/15 03:25:24;;;;;;;4.50;2.40;;;;;;;-7.58;76.63;99491.13;4988405;28;20049;-68
2023/12/15 03:27:53;;;;;;;11.60;2.80;;;;;;;-7.30;77.30;99525.59;4984745;28;20073;-67
2023/12/15 03:30:19;;;;;;;18.35;3.78;;;;;;;-7.41;77.01;99502.22;5007794;28;20033;-69
2023/12/15 03:32:47;;;;;;;7.05;2.03;;;;;;;-7.23;77.09;99542.00;4990930;28;20064;-69
2023/12/15 03:35:13;;;;;;;13.68;4.13;;;;;;;-7.37;77.11;99517.56;4989848;28;20404;-69
2023/12/15 03:37:42;;;;;;;14.82;3.63;;;;;;;-7.50;76.98;99531.16;4973168;28;20041;-70
2023/12/15 03:40:15;;;;;;;14.15;3.28;;;;;;;-7.49;76.40;99543.00;4973634;28;20065;-70
2023/12/15 03:42:46;;;;;;;9.55;2.65;;;;;;;-7.41;77.11;99534.25;5007385;28;20570;-68
2023/12/15 03:45:17;;;;;;;1.83;0.82;;;;;;;-7.63;77.51;99502.63;4984940;28;20036;-71
2023/12/15 03:47:47;;;;;;;5.13;1.83;;;;;;;-7.34;77.00;99532.94;4988327;28;20061;-70
2023/12/15 03:50:19;;;;;;;9.90;3.08;;;;;;;-7.50;76.49;99516.00;4947125;28;20086;-69
2023/12/15 03:52:51;;;;;;;2.65;0.73;;;;;;;-7.41;77.52;99511.47;4961444;28;20060;-70
2023/12/15 03:55:22;;;;;;;2.50;1.50;;;;;;;-7.20;78.01;99473.91;4969579;28;20048;-70
2023/12/15 03:57:48;;;;;;;3.10;0.82;;;;;;;-7.19;77.65;99454.56;4985355;28;20041;-71
2023/12/15 04:00:16;;;;;;;6.07;1.42;;;;;;;-7.25;77.35;99450.00;4954032;28;20038;-71
2023/12/15 04:02:43;;;;;;;2.08;1.20;;;;;;;-6.95;77.34;99520.81;4970027;28;20037;-69
2023/12/15 04:05:14;;;;;;;12.90;2.10;;;;;;;-7.16;77.32;99490.09;4952435;28;20551;-71
2023/12/15 04:07:45;;;;;;;2.22;0.90;;;;;;;-7.16;77.73;99488.47;4961791;28;20034;-71
2023/12/15 04:10:17;;;;;;;3.30;1.73;;;;;;;-7.53;76.43;99448.44;4970461;28;20136;-71
2023/12/15 04:12:47;;;;;;;1.55;0.60;;;;;;;-7.12;77.18;99514.78;4977848;28;20042;-71
2023/12/15 04:15:18;;;;;;;9.48;1.40;;;;;;;-7.29;77.47;99476.78;4965457;28;20508;-70
2023/12/15 04:17:47;;;;;;;8.23;1.92;;;;;;;-6.94;77.40;99506.50;4950919;28;20100;-70
2023/12/15 04:20:16;;;;;;;1.90;0.65;;;;;;;-7.21;76.92;99483.94;4967978;28;20042;-71
2023/12/15 04:22:44;;;;;;;3.83;1.10;;;;;;;-7.88;76.85;99381.56;4950798;28;20152;-71
2023/12/15 04:25:16;;;;;;;2.80;1.42;;;;;;;-7.16;76.80;99505.28;4954469;28;20493;-71
2023/12/15 04:27:48;;;;;;;6.30;1.75;;;;;;;-7.29;77.73;99465.81;4964532;28;20049;-70
2023/12/15 04:30:14;;;;;;;5.75;2.03;;;;;;;-7.39;77.18;99434.03;4954722;28;20412;-71
2023/12/15 04:32:43;;;;;;;6.43;1.25;;;;;;;-6.90;77.73;99486.53;4986428;28;20045;-70
2023/12/15 04:35:10;;;;;;;3.38;1.08;;;;;;;-6.66;77.97;99492.06;4970433;28;20034;-71
2023/12/15 04:37:36;;;;;;;9.15;2.08;;;;;;;-6.94;75.48;99493.84;4969911;28;20035;-71
2023/12/15 04:40:05;;;;;;;6.38;2.00;;;;;;;-7.17;75.96;99481.66;4965780;28;20038;-70
2023/12/15 04:42:31;;;;;;;19.90;4.50;;;;;;;-7.04;77.34;99464.63;4986748;28;20042;-70
2023/12/15 04:44:57;;;;;;;14.60;2.05;;;;;;;-6.99;76.50;99455.66;4985556;28;21561;-70
2023/12/15 04:47:23;;;;;;;11.90;2.20;;;;;;;-6.77;77.29;99457.72;4963000;28;20545;-69
2023/12/15 04:49:52;;;;;;;36.63;1.67;;;;;;;-6.75;77.04;99430.84;4986377;28;20038;-68
2023/12/15 04:52:32;;;;;;;10.82;2.72;;;;;;;-6.73;76.87;99438.50;5006322;28;20038;-70
2023/12/15 04:55:01;;;;;;;5.43;1.90;;;;;;;-6.77;77.08;99437.47;4988618;28;20042;-69
2023/12/15 04:57:33;;;;;;;12.50;3.00;;;;;;;-7.06;75.46;99429.13;4980240;28;20132;-71
2023/12/15 04:59:59;;;;;;;16.63;4.43;;;;;;;-7.09;75.21;99461.00;4987651;28;20034;-71
2023/12/15 05:02:26;;;;;;;11.02;2.40;;;;;;;-7.12;75.71;99471.78;4987716;28;20034;-71
2023/12/15 05:04:55;;;;;;;17.67;3.55;;;;;;;-7.56;75.71;99415.41;5007270;28;20180;-70
2023/12/15 05:07:24;;;;;;;8.77;2.78;;;;;;;-7.37;75.23;99487.25;4974467;28;20045;-71
2023/12/15 05:09:51;;;;;;;19.33;3.42;;;;;;;-7.38;76.06;99475.38;4979709;28;20069;-69
2023/12/15 05:12:17;;;;;;;4.00;1.45;;;;;;;-7.35;75.79;99463.78;4989947;28;20052;-73
2023/12/15 05:14:45;;;;;;;0.00;0.00;;;;;;;-7.20;76.62;99441.00;4989211;28;20034;-69
2023/12/15 05:17:11;;;;;;;11.50;3.10;;;;;;;-6.95;75.98;99465.16;4992379;28;20038;-70
2023/12/15 05:19:43;;;;;;;1.20;0.43;;;;;;;-7.23;76.15;99435.78;4989684;28;20049;-70
2023/12/15 05:22:11;;;;;;;0.13;0.10;;;;;;;-6.93;76.66;99435.75;5006777;28;20088;-70
2023/12/15 05:24:38;;;;;;;6.90;2.15;;;;;;;-6.63;76.88;99477.84;4959031;28;20684;-71
2023/12/15 05:27:08;;;;;;;6.10;1.05;;;;;;;-6.58;76.95;99462.09;4980344;28;20144;-72
2023/12/15 05:29:34;;;;;;;13.20;3.03;;;;;;;-6.86;76.57;99416.72;4988487;28;20038;-74
2023/12/15 05:32:02;;;;;;;3.70;1.25;;;;;;;-6.68;76.51;99420.22;4967609;28;20049;-72
2023/12/15 05:34:47;;;;;;;1.45;1.05;;;;;;;-6.56;75.66;99454.59;5001913;28;20065;-71
2023/12/15 05:37:13;;;;;;;10.38;2.00;;;;;;;-6.62;76.67;99447.56;4971751;28;20045;-72
2023/12/15 05:39:50;;;;;;;11.05;2.53;;;;;;;-6.82;75.74;99416.94;4979834;28;20045;-71
2023/12/15 05:42:22;;;;;;;;;;;;;;;-6.61;75.17;99453.47;4986832;28;20045;-69
2023/12/15 05:44:51;;;;;;;2.05;0.82;;;;;;;-6.73;75.47;99434.28;4971977;28;19921;-70
2023/12/15 05:47:23;;;;;;;4.30;0.93;;;;;;;-7.37;75.75;99338.06;4981506;28;20046;-72
2023/12/15 05:49:49;;;;;;;4.03;1.90;;;;;;;-7.31;75.20;99361.16;4952056;28;20038;-72
2023/12/15 05:52:18;;;;;;;2.72;0.90;;;;;;;-7.39;75.37;99359.84;4972081;28;20614;-73
2023/12/15 05:54:48;;;;;;;4.80;1.23;;;;;;;-6.85;76.36;99421.88;5010353;28;20839;-72
2023/12/15 05:57:15;;;;;;;13.15;2.78;;;;;;;-6.72;75.32;99435.19;5001064;28;20041;-69
2023/12/15 05:59:41;;;;;;;0.43;0.40;;;;;;;-6.84;74.63;99466.59;4999100;28;20033;-67
2023/12/15 06:02:07;;;;;;;5.82;0.52;;;;;;;-7.06;75.58;99420.69;4984472;28;20034;-66
2023/12/15 06:04:36;;;;;;;2.15;0.80;;;;;;;-7.02;74.48;99436.13;5000597;28;20045;-72
2023/12/15 06:07:15;;;;;;;10.55;2.80;;;;;;;-7.06;75.30;99423.22;5018809;28;20061;-67
2023/12/15 06:09:45;;;;;;;5.72;2.20;;;;;;;-6.84;75.35;99453.09;4999517;28;20115;-69
2023/12/15 06:12:22;;;;;;;1.90;0.82;;;;;;;-6.78;75.22;99463.56;4982428;28;20038;-68
2023/12/15 06:14:49;;;;;;;14.02;3.58;;;;;;;-6.70;75.35;99453.84;4967441;28;20029;-68
2023/12/15 06:17:20;;;;;;;17.20;4.20;;;;;;;-6.61;76.05;99428.16;4999871;28;20120;-70
2023/12/15 06:19:47;;;;;;;19.63;3.92;;;;;;;-6.13;76.00;99458.53;4971569;28;20065;-69
2023/12/15 06:22:13;;;;;;;5.85;2.47;;;;;;;-6.44;75.21;99445.13;4988806;28;20060;-68
2023/12/15 06:24:41;;;;;;;8.13;1.88;;;;;;;-6.66;74.82;99433.84;5009426;28;20045;-68
2023/12/15 06:27:11;;;;;;;7.63;2.10;;;;;;;-6.98;74.55;99387.44;4985937;28;20041;-68
2023/12/15 06:29:44;;;;;;;6.72;1.88;;;;;;;-6.83;75.17;99414.34;4988492;28;20136;-69
2023/12/15 06:32:12;;;;;;;1.75;0.80;;;;;;;-7.06;75.03;99365.03;4989361;28;20034;-67
2023/12/15 06:34:42;;;;;;;0.75;0.50;;;;;;;-6.33;74.90;99452.44;5004797;28;20030;-68
2023/12/15 06:37:08;;;;;;;2.40;1.15;;;;;;;-6.81;74.28;99384.94;4987817;28;20535;-70
2023/12/15 06:39:37;;;;;;;16.33;3.70;;;;;;;-6.69;74.55;99400.78;5022496;28;20041;-68
2023/12/15 06:42:06;;;;;;;6.25;1.08;;;;;;;-6.58;74.20;99420.75;5004378;28;20097;-70
2023/12/15 06:44:57;;;;;;;7.75;2.95;;;;;;;-7.09;73.37;99352.22;5006174;28;20048;-69
2023/12/15 06:47:23;;;;;;;0.40;0.40;;;;;;;-6.84;74.57;99375.50;4989834;28;20045;-69
2023/12/15 06:50:02;;;;;;;2.15;0.75;;;;;;;-6.62;74.52;99391.88;4999995;28;20057;-68
2023/12/15 06:52:51;;;;;;;9.18;2.28;;;;;;;-6.41;75.03;99437.69;5019231;28;20163;-68
2023/12/15 06:55:18;;;;;;;1.92;0.73;;;;;;;-6.53;74.17;99421.88;5021213;28;20072;-70
2023/12/15 06:57:51;;;;;;;0.90;0.70;;;;;;;-6.87;75.06;99322.22;4992348;28;20034;-70
2023/12/15 07:00:26;;;;;;;12.60;2.17;;;;;;;-6.31;74.45;99402.75;4993737;28;20041;-67
2023/12/15 07:02:55;;;;;;;2.30;0.70;;;;;;;-6.68;74.16;99362.00;4973775;28;20042;-72
2023/12/15 07:05:20;;;;;;;7.65;2.85;;;;;;;-6.55;73.99;99409.09;5003400;28;20046;-70
2023/12/15 07:07:47;;;;;;;6.35;1.42;;;;;;;-6.71;74.66;99353.41;4989178;28;20046;-66
2023/12/15 07:10:16;;;;;;;2.28;0.75;;;;;;;-6.23;74.27;99401.44;4985742;28;20046;-68
2023/12/15 07:12:51;;;;;;;3.40;1.20;;;;;;;-6.09;73.60;99441.06;4979486;28;20042;-72
2023/12/15 07:15:27;;;;;;;7.93;2.00;;;;;;;-6.96;73.74;99294.78;4985615;28;20042;-70
2023/12/15 07:18:01;;;;;;;2.83;1.23;;;;;;;-6.43;73.13;99413.94;4979236;28;20041;-72
2023/12/15 07:20:27;;;;;;;8.27;2.65;;;;;;;-6.30;73.93;99438.25;5005930;28;20041;-72
2023/12/15 07:22:55;;;;;;;11.48;1.30;;;;;;;-6.18;74.21;99434.66;4986891;28;20041;-69
2023/12/15 07:25:24;;;;;;;5.40;1.55;;;;;;;-5.78;74.66;99450.19;4968567;28;20096;-68
2023/12/15 07:27:51;;;;;;;1.90;0.80;;;;;;;-6.22;74.47;99372.81;4967860;28;20132;-68
2023/12/15 07:30:26;;;;;;;18.52;4.10;;;;;;;-6.06;74.31;99408.25;4998025;28;20042;-69
2023/12/15 07:33:00;;;;;;;14.90;4.00;;;;;;;-6.19;74.58;99356.91;5004058;28;20041;-67
2023/12/15 07:35:35;;;;;;;1.30;0.85;;;;;;;-5.77;73.94;99400.38;4983853;28;20033;-68
2023/12/15 07:38:32;;;;;;;6.28;1.52;;;;;;;-5.86;73.65;99395.72;4977283;28;20387;-66
2023/12/15 07:41:01;;;;;;;8.85;2.70;;;;;;;-6.29;72.45;99373.28;4998574;28;20044;-64
2023/12/15 07:43:28;;;;;;;0.98;0.65;;;;;;;-6.29;73.38;99355.56;4998536;28;20042;-66
2023/12/15 07:46:19;;;;;;;3.88;0.68;;;;;;;-5.55;74.36;99434.41;4985735;28;20048;-67
2023/12/15 07:48:48;;;;;;;1.15;0.68;;;;;;;-5.62;74.01;99392.63;4977358;28;20049;-67
2023/12/15 07:51:22;;;;;;;1.17;0.65;;;;;;;-5.43;74.61;99401.16;5016952;28;20054;-70
2023/12/15 07:53:56;;;;;;;13.05;2.67;;;;;;;-5.28;73.99;99439.97;5007750;28;20041;-67
2023/12/15 07:56:24;;;;;;;6.72;1.35;;;;;;;-5.14;74.61;99411.03;5002228;28;20084;-63
2023/12/15 07:58:56;;;;;;;2.13;1.38;;;;;;;-5.51;73.49;99371.22;4986299;28;20129;-64
2023/12/15 08:01:25;;;;;;;1.35;0.55;;;;;;;-5.61;72.39;99427.34;4982951;28;20530;-67
2023/12/15 08:03:50;;;;;;;5.50;1.40;;;;;;;-5.84;72.45;99416.06;5001530;28;20038;-63
2023/12/15 08:06:31;;;;;;;6.70;1.50;;;;;;;-5.96;72.50;99419.72;5016796;28;20139;-64
2023/12/15 08:08:59;;;;;;;9.70;2.30;;;;;;;-6.21;72.74;99369.47;5002629;28;20040;-67
2023/12/15 08:11:28;;;;;;;1.80;0.90;;;;;;;-6.06;72.88;99372.78;5015687;28;20042;-66
2023/12/15 08:13:57;;;;;;;6.20;2.05;;;;;;;-5.99;73.29;99345.19;4987625;28;20049;-63
2023/12/15 08:16:49;;;;;;;1.48;1.00;;;;;;;-5.52;73.63;99374.56;5000903;28;20041;-64
2023/12/15 08:19:15;;;;;;;3.70;1.67;;;;;;;-5.44;74.23;99347.03;4985600;28;20041;-65
2023/12/15 08:21:41;;;;;;;1.92;0.93;;;;;;;-5.48;73.18;99340.06;4980784;28;20554;-62
2023/12/15 08:24:11;;;;;;;0.47;0.20;;;;;;;-4.99;73.61;99425.28;4984292;28;20049;-64
2023/12/15 08:26:44;;;;;;;1.65;0.70;;;;;;;-5.24;72.70;99403.81;5020977;28;20041;-64
2023/12/15 08:29:19;;;;;;;7.50;1.73;;;;;;;-5.48;71.66;99383.16;5021048;28;20128;-64
2023/12/15 08:31:45;;;;;;;9.25;1.98;;;;;;;-5.93;73.24;99346.38;4984638;28;20053;-64
2023/12/15 08:34:22;;;;;;;11.07;2.50;;;;;;;-5.33;73.02;99399.16;4997765;28;20049;-64
2023/12/15 08:36:50;;;;;;;1.98;0.70;;;;;;;-5.30;72.48;99418.72;4999611;28;20051;-66
2023/12/15 08:39:24;;;;;;;13.30;3.75;;;;;;;-5.18;73.68;99404.06;4995615;28;20081;-64
2023/12/15 08:41:52;;;;;;;1.40;0.50;;;;;;;-5.07;72.73;99409.66;5005550;28;20045;-67
2023/12/15 08:44:38;;;;;;;12.02;2.38;;;;;;;-5.35;71.32;99392.25;4997421;28;20042;-64
2023/12/15 08:47:05;;;;;;;6.07;1.90;;;;;;;-5.56;71.50;99398.03;5006815;28;20096;-66
2023/12/15 08:49:31;;;;;;;1.08;0.20;;;;;;;-5.96;73.11;99290.50;4978970;28;20065;-65
2023/12/15 08:51:57;;;;;;;1.05;0.60;;;;;;;-5.05;73.15;99387.75;4977743;28;20058;-65
2023/12/15 08:54:29;;;;;;;8.02;0.95;;;;;;;-5.31;72.44;99376.38;5013592;28;20046;-64
2023/12/15 08:56:56;;;;;;;8.43;1.40;;;;;;;-5.25;73.05;99363.13;5014252;28;20068;-65
2023/12/15 08:59:24;;;;;;;4.40;0.95;;;;;;;-5.10;73.48;99348.63;5015240;28;20041;-63
2023/12/15 09:01:50;;;;;;;18.63;5.03;;;;;;;-5.11;73.31;99301.22;5014109;28;20052;-64
2023/12/15 09:04:16;;;;;;;3.25;1.30;;;;;;;-4.42;73.11;99397.41;5012739;28;20454;-66
2023/12/15 09:06:53;;;;;;;0.98;0.65;;;;;;;-4.27;72.04;99422.59;5016704;28;20049;-66
2023/12/15 09:09:21;;;;;;;3.67;1.23;;;;;;;-4.36;72.08;99422.22;4998885;28;20048;-67
2023/12/15 09:11:49;;;;;;;4.53;1.92;;;;;;;-4.61;72.28;99420.22;4983108;28;20041;-69
2023/12/15 09:14:17;;;;;;;8.77;1.70;;;;;;;-5.08;71.48;99358.84;5015238;28;20056;-67
2023/12/15 09:16:43;;;;;;;0.82;0.50;;;;;;;-4.77;72.29;99429.69;4994987;28;20037;-65
2023/12/15 09:19:10;;;;;;;5.45;1.45;;;;;;;-5.23;71.86;99349.72;4986710;28;20054;-69
2023/12/15 09:21:43;;;;;;;3.33;1.02;;;;;;;-4.78;73.23;99376.31;5014462;28;20037;-65
2023/12/15 09:24:21;;;;;;;3.92;0.70;;;;;;;-4.26;72.15;99431.97;4998214;28;20034;-65
2023/12/15 09:26:47;;;;;;;6.60;1.38;;;;;;;-4.77;72.26;99373.81;4999444;28;20527;-65
2023/12/15 09:29:35;;;;;;;3.33;1.08;;;;;;;-4.67;71.37;99390.34;4977286;28;20045;-67
2023/12/15 09:32:23;;;;;;;0.93;0.82;;;;;;;-4.93;71.01;99364.63;4974539;28;20042;-68
2023/12/15 09:34:53;;;;;;;3.08;0.85;;;;;;;-5.11;71.05;99320.63;4963384;28;20049;-67
2023/12/15 09:37:30;;;;;;;1.42;0.70;;;;;;;-4.58;71.37;99412.75;4998758;28;20507;-64
2023/12/15 09:39:59;;;;;;;3.58;0.90;;;;;;;-4.46;72.59;99394.66;5011241;28;20116;-68
2023/12/15 09:42:33;;;;;;;2.78;0.82;;;;;;;-4.48;72.45;99330.19;4975877;28;20143;-68
2023/12/15 09:45:11;;;;;;;2.10;0.35;;;;;;;-3.68;72.41;99414.09;4982146;28;20041;-66
2023/12/15 09:47:50;;;;;;;6.13;1.92;;;;;;;-3.65;72.43;99393.88;4978556;28;20038;-65
2023/12/15 09:50:38;;;;;;;3.00;1.13;;;;;;;-3.28;72.70;99407.25;4996605;28;20128;-64
2023/12/15 09:53:07;;;;;;;3.50;1.33;;;;;;;-3.44;72.63;99354.88;5001864;28;20496;-66
2023/12/15 09:55:36;;;;;;;0.57;0.38;;;;;;;-3.29;71.16;99393.63;5002865;28;20041;-64
2023/12/15 09:58:07;;;;;;;8.95;3.10;;;;;;;-3.52;70.92;99380.84;5000472;28;20081;-64
2023/12/15 10:00:35;;;;;;;7.43;1.77;;;;;;;-4.14;71.01;99319.81;4984473;28;20057;-65
2023/12/15 10:03:10;;;;;;;4.40;1.02;;;;;;;-4.19;70.79;99333.16;4966867;28;20046;-66
2023/12/15 10:05:42;;;;;;;0.70;0.40;;;;;;;-3.78;71.19;99389.97;4998715;28;20042;-67
2023/12/15 10:08:12;;;;;;;7.43;1.70;;;;;;;-4.16;71.33;99325.66;5000349;28;21423;-65
2023/12/15 10:10:38;;;;;;;2.90;1.08;;;;;;;-3.57;71.69;99425.59;4988162;28;20041;-65
2023/12/15 10:13:08;;;;;;;18.08;4.70;;;;;;;-3.89;71.33;99331.03;5008529;28;20061;-65
2023/12/15 10:15:47;;;;;;;2.22;1.27;;;;;;;-4.08;70.51;99324.28;5018755;28;20057;-65
2023/12/15 10:18:23;;;;;;;8.18;1.92;;;;;;;-3.67;71.10;99421.81;5017124;28;20080;-66
2023/12/15 10:20:59;;;;;;;2.47;0.90;;;;;;;-4.41;70.33;99357.63;4984741;28;20051;-66
2023/12/15 10:23:38;;;;;;;0.20;0.20;;;;;;;-4.38;70.90;99347.59;4984769;28;20099;-67
2023/12/15 10:26:05;;;;;;;;;;;;;;;-3.68;71.44;99430.25;4999964;28;20048;-66
2023/12/15 10:28:39;;;;;;;5.57;1.65;;;;;;;-3.44;71.60;99421.03;4980408;28;19919;-64
2023/12/15 10:31:07;;;;;;;12.95;2.70;;;;;;;-3.85;71.15;99343.06;5019869;28;20064;-65
2023/12/15 10:33:34;;;;;;;3.70;1.38;;;;;;;-3.58;70.73;99392.47;5000658;28;20038;-67
2023/12/15 10:36:12;;;;;;;3.20;0.60;;;;;;;-3.95;70.64;99353.63;5004524;28;21322;-62
2023/12/15 10:38:49;;;;;;;2.55;0.63;;;;;;;-3.80;70.60;99382.28;4975232;28;20034;-65
2023/12/15 10:41:16;;;;;;;7.90;1.40;;;;;;;-3.94;70.86;99356.25;5018305;28;20044;-66
2023/12/15 10:43:55;;;;;;;1.45;0.98;;;;;;;-3.84;69.89;99395.66;5020563;28;20041;-64
2023/12/15 10:46:27;;;;;;;0.50;0.50;;;;;;;-4.40;69.82;99385.63;5001514;28;20184;-63
2023/12/15 10:49:04;;;;;;;11.55;2.05;;;;;;;-4.04;70.60;99422.75;5020083;28;20037;-63
2023/12/15 10:51:45;;;;;;;6.32;1.55;;;;;;;-4.13;70.88;99344.44;4970452;28;20094;-64
2023/12/15 10:54:18;;;;;;;5.28;1.38;;;;;;;-4.01;70.59;99327.97;4966424;28;20034;-64
2023/12/15 10:57:02;;;;;;;11.60;1.90;;;;;;;-4.01;70.56;99330.53;4982651;28;20052;-65
2023/12/15 10:59:30;;;;;;;0.85;0.10;;;;;;;-3.83;70.64;99332.94;4998830;28;20057;-64
2023/12/15 11:02:16;;;;;;;6.18;1.63;;;;;;;-3.28;70.26;99409.81;4985679;28;20038;-64
2023/12/15 11:04:49;;;;;;;7.38;1.00;;;;;;;-3.36;69.86;99392.53;4967829;28;20074;-63
2023/12/15 11:07:27;;;;;;;1.70;0.82;;;;;;;-3.31;69.82;99409.66;4967255;28;20030;-66
2023/12/15 11:10:05;;;;;;;1.20;0.47;;;;;;;-3.26;70.05;99406.50;4958847;28;20034;-64
2023/12/15 11:12:41;;;;;;;0.65;0.30;;;;;;;-3.59;69.82;99337.31;4972776;28;20133;-63
2023/12/15 11:15:18;;;;;;;3.25;0.98;;;;;;;-2.99;69.64;99443.19;4984146;28;20060;-65
2023/12/15 11:17:58;;;;;;;0.85;0.73;;;;;;;-3.23;69.81;99404.06;4978944;28;20038;-63
2023/12/15 11:20:25;;;;;;;7.43;1.73;;;;;;;-2.97;69.54;99439.91;4965363;28;20117;-63
2023/12/15 11:22:59;;;;;;;4.53;1.35;;;;;;;-2.95;70.47;99415.38;4966809;28;20154;-63
2023/12/15 11:25:56;;;;;;;1.88;0.80;;;;;;;-2.75;69.45;99439.03;4982094;28;20058;-63
2023/12/15 11:28:43;;;;;;;0.22;0.22;;;;;;;-2.72;69.12;99441.72;4999820;28;20042;-64
2023/12/15 11:31:30;;;;;;;2.42;0.43;;;;;;;-2.78;68.56;99446.59;4988434;28;20046;-63
2023/12/15 11:34:04;;;;;;;1.10;0.88;;;;;;;-2.94;69.50;99417.09;4983437;28;20386;-65
2023/12/15 11:36:51;;;;;;;9.15;2.17;;;;;;;-2.85;69.98;99430.97;4997960;28;20038;-64
2023/12/15 11:39:16;;;;;;;1.23;0.45;;;;;;;-2.82;68.75;99418.38;4982154;28;20065;-63
2023/12/15 11:42:02;;;;;;;11.02;1.95;;;;;;;-2.57;68.70;99443.13;4985282;28;20093;-65
2023/12/15 11:44:39;;;;;;;11.30;2.40;;;;;;;-2.48;69.15;99447.72;4982124;28;20044;-64
2023/12/15 11:47:15;;;;;;;3.60;1.00;;;;;;;-3.08;68.58;99327.44;4974149;28;20068;-64
2023/12/15 11:49:45;;;;;;;5.32;1.65;;;;;;;-2.46;68.96;99431.66;4982898;28;20065;-65